Time;durP1;ratioP1;P1;durP2;ratioP2;P2;SDS_P1;SDS_P2;PMS_P1;PMS_P2;Temp;Humidity;BMP_temperature;BMP_pressure;BME280_temperature;BME280_humidity;BME280_pressure;Samples;Min_cycle;Max_cycle;Signal;HPM_P1;HPM_P2
2021/11/07 00:13:25;;;;;;;4.90;2.10;;;23.10;61.40;;;;;;31388557;28;20109;-47
2021/11/07 00:29:04;;;;;;;2.60;1.42;;;23.10;61.40;;;;;;31387171;28;20125;-48
2021/11/07 01:14:09;;;;;;;4.00;0.75;;;23.00;61.90;;;;;;31382363;28;20097;-44
2021/11/07 01:29:17;;;;;;;0.32;0.32;;;23.00;62.20;;;;;;31381063;28;20095;-48
2021/11/07 01:44:19;;;;;;;0.20;0.20;;;23.00;62.30;;;;;;31378782;28;20104;-45
2021/11/07 01:59:21;;;;;;;1.23;0.20;;;23.00;62.60;;;;;;31376996;28;20071;-47
2021/11/07 02:14:24;;;;;;;0.40;0.10;;;22.90;62.60;;;;;;31375167;28;20052;-44
2021/11/07 02:29:28;;;;;;;0.10;0.10;;;22.90;62.90;;;;;;31373982;28;20050;-45
2021/11/07 02:44:34;;;;;;;0.32;0.32;;;22.90;62.90;;;;;;31372771;28;20065;-50
2021/11/07 02:59:40;;;;;;;1.05;0.28;;;23.00;63.10;;;;;;31404604;28;20116;-44
2021/11/07 03:14:51;;;;;;;0.98;0.20;;;23.50;63.20;;;;;;31376492;28;20065;-45
2021/11/07 03:29:56;;;;;;;2.97;0.17;;;23.50;62.70;;;;;;31469808;28;20045;-44
2021/11/07 03:44:58;;;;;;;3.33;0.20;;;23.40;63.00;;;;;;31393009;28;20105;-45
2021/11/07 04:00:00;;;;;;;0.10;0.10;;;23.30;63.00;;;;;;31391647;28;20049;-44
2021/11/07 04:15:04;;;;;;;0.10;0.10;;;23.30;62.90;;;;;;31389901;28;20097;-45
2021/11/07 04:30:08;;;;;;;0.10;0.10;;;23.20;62.90;;;;;;31386631;28;20123;-43
2021/11/07 04:45:10;;;;;;;0.10;0.10;;;23.20;63.00;;;;;;31416061;28;20444;-44
2021/11/07 05:00:17;;;;;;;0.10;0.10;;;23.10;63.00;;;;;;31409530;28;20045;-47
2021/11/07 05:15:20;;;;;;;0.10;0.10;;;23.00;63.00;;;;;;31382369;28;20450;-49
2021/11/07 05:30:22;;;;;;;0.38;0.10;;;23.00;63.10;;;;;;31380582;28;20048;-48
2021/11/07 05:45:24;;;;;;;0.10;0.10;;;23.00;63.20;;;;;;31378652;28;20515;-46
2021/11/07 06:00:27;;;;;;;1.27;0.20;;;23.00;63.30;;;;;;31376887;28;20079;-45
2021/11/07 06:15:29;;;;;;;8.20;6.38;;;23.00;63.40;;;;;;31389252;28;20041;-47
2021/11/07 06:30:31;;;;;;;5.53;2.08;;;22.80;62.80;;;;;;31414476;28;20042;-44
2021/11/07 06:45:35;;;;;;;9.98;4.55;;;23.00;63.20;;;;;;31411659;28;20110;-47
2021/11/07 07:00:38;;;;;;;5.63;3.67;;;23.40;61.00;;;;;;31459226;28;20108;-44
2021/11/07 07:15:44;;;;;;;9.10;4.43;;;23.30;58.70;;;;;;31371604;28;20049;-38
2021/11/07 07:46:11;;;;;;;17.33;4.97;;;23.10;58.20;;;;;;31403424;28;20061;-42
2021/11/07 08:01:13;;;;;;;16.15;4.53;;;23.20;59.90;;;;;;31390441;28;20068;-43
2021/11/07 08:16:16;;;;;;;16.65;4.85;;;23.20;60.40;;;;;;31408353;28;20044;-44
2021/11/07 08:31:23;;;;;;;22.35;8.02;;;23.20;60.90;;;;;;31392396;28;20093;-38
2021/11/07 09:16:54;;;;;;;17.30;8.50;;;23.20;61.70;;;;;;31378543;28;20041;-45
2021/11/07 09:32:45;;;;;;;15.63;7.15;;;23.00;62.10;;;;;;31466631;28;20129;-40
2021/11/07 09:47:19;;;;;;;13.85;6.72;;;22.90;61.20;;;;;;31378914;28;20069;-37
2021/11/07 10:02:22;;;;;;;14.35;6.00;;;22.90;61.00;;;;;;31393532;28;20115;-45
2021/11/07 10:17:43;;;;;;;7.75;4.55;;;22.90;60.70;;;;;;31372115;28;20101;-43
2021/11/07 10:33:07;;;;;;;6.78;3.80;;;23.30;60.60;;;;;;31387173;28;20077;-39
2021/11/07 10:48:20;;;;;;;10.60;4.00;;;23.50;60.90;;;;;;31367356;28;20053;-43
2021/11/07 11:03:23;;;;;;;5.90;3.42;;;23.50;60.90;;;;;;31372232;28;20092;-39
2021/11/07 11:18:50;;;;;;;9.20;3.78;;;23.40;61.10;;;;;;31369529;28;20084;-40
2021/11/07 11:33:56;;;;;;;7.10;4.05;;;23.40;61.50;;;;;;31368397;28;20045;-39
2021/11/07 11:49:59;;;;;;;8.63;3.50;;;23.30;62.00;;;;;;31419759;28;20077;-45
2021/11/07 12:05:37;;;;;;;12.70;4.60;;;23.20;62.40;;;;;;31495585;28;20053;-46
2021/11/07 12:20:39;;;;;;;8.27;3.78;;;23.20;62.90;;;;;;31341801;28;20108;-39
2021/11/07 12:35:45;;;;;;;11.93;3.60;;;23.20;62.90;;;;;;31470687;28;20061;-41
2021/11/07 12:50:59;;;;;;;8.77;3.33;;;23.20;62.90;;;;;;31389996;28;20042;-37
2021/11/07 13:06:02;;;;;;;4.15;2.80;;;23.10;62.70;;;;;;31384717;28;20065;-42
2021/11/07 13:36:26;;;;;;;4.40;2.75;;;23.10;62.70;;;;;;31383533;28;20187;-44
2021/11/07 13:51:34;;;;;;;19.33;10.40;;;23.00;62.70;;;;;;31381231;28;20121;-45
2021/11/07 14:06:38;;;;;;;32.45;17.92;;;23.10;63.60;;;;;;31373962;28;20052;-39
2021/11/07 14:21:46;;;;;;;13.95;9.02;;;23.00;64.60;;;;;;31373604;28;20068;-40
2021/11/07 14:52:33;;;;;;;26.80;13.10;;;22.90;62.70;;;;;;31376180;28;20049;-37
2021/11/07 15:07:51;;;;;;;19.15;9.63;;;22.90;63.10;;;;;;31374142;28;20109;-38
2021/11/07 15:22:51;;;;;;;20.92;11.48;;;22.90;61.70;;;;;;31456948;28;20040;-39
2021/11/07 15:37:53;;;;;;;24.30;13.82;;;23.00;61.30;;;;;;31523693;28;20106;-38
2021/11/07 16:08:19;;;;;;;26.30;13.52;;;22.90;60.50;;;;;;31491473;28;20584;-40
2021/11/07 16:23:21;;;;;;;;;;;22.90;61.60;;;;;;31409463;28;20116;-44
2021/11/07 16:38:40;;;;;;;23.17;12.68;;;22.90;62.20;;;;;;31512560;28;20494;-38
2021/11/07 16:53:46;;;;;;;27.97;14.77;;;22.80;62.90;;;;;;31430615;28;20069;-38
2021/11/07 17:09:00;;;;;;;24.10;14.05;;;22.70;63.20;;;;;;31407749;28;20117;-38
2021/11/07 17:24:19;;;;;;;23.58;13.60;;;22.70;64.40;;;;;;31382707;28;20045;-40
2021/11/07 18:10:07;;;;;;;26.75;12.43;;;22.70;65.10;;;;;;31384213;28;20084;-38
2021/11/07 18:25:16;;;;;;;15.40;10.32;;;22.70;65.60;;;;;;31031128;28;10000212;-42
2021/11/07 18:40:18;;;;;;;;;;;22.90;64.60;;;;;;31364021;28;20062;-38
2021/11/07 18:55:21;;;;;;;69.65;27.23;;;22.90;64.40;;;;;;31355034;28;19921;-41
2021/11/07 19:10:24;;;;;;;40.85;18.50;;;22.90;67.10;;;;;;31273095;28;20041;-52
2021/11/07 19:25:26;;;;;;;154.18;73.10;;;22.90;66.80;;;;;;31366178;28;20050;-37
2021/11/07 19:40:31;;;;;;;115.82;52.22;;;22.90;68.60;;;;;;31360483;28;20113;-45
2021/11/07 19:55:34;;;;;;;92.30;40.78;;;22.90;68.70;;;;;;31458661;28;20045;-35
2021/11/07 20:10:37;;;;;;;68.05;33.10;;;22.90;68.50;;;;;;31504945;28;20041;-35
2021/11/07 20:25:40;;;;;;;57.65;26.75;;;22.90;67.90;;;;;;31404579;28;20053;-39
2021/11/07 20:40:45;;;;;;;46.80;23.40;;;23.00;66.30;;;;;;31387047;28;20057;-41
2021/11/07 21:10:57;;;;;;;38.50;18.80;;;23.10;65.50;;;;;;31382978;28;20061;-37
2021/11/07 21:26:17;;;;;;;83.68;55.55;;;23.20;65.80;;;;;;31384717;28;20049;-44
2021/11/07 21:56:21;;;;;;;63.70;41.75;;;23.20;64.40;;;;;;31383910;28;20045;-36
2021/11/07 22:11:33;;;;;;;56.20;40.08;;;23.20;64.30;;;;;;31379829;28;20046;-40
2021/11/07 22:26:38;;;;;;;51.85;37.40;;;23.20;64.40;;;;;;31374944;28;20101;-40
2021/11/07 22:41:40;;;;;;;46.75;33.80;;;23.20;64.40;;;;;;31373183;28;20069;-45
2021/11/07 22:57:08;;;;;;;30.23;22.63;;;23.10;64.80;;;;;;31378154;28;20049;-46
2021/11/07 23:12:10;;;;;;;18.48;13.48;;;23.20;64.40;;;;;;31379128;28;20069;-41
2021/11/07 23:27:14;;;;;;;9.48;7.80;;;23.20;64.50;;;;;;31380730;28;20099;-39
2021/11/07 23:42:16;;;;;;;15.02;6.05;;;23.20;64.40;;;;;;31472294;28;20080;-42
